Time;durP1;ratioP1;P1;durP2;ratioP2;P2;SDS_P1;SDS_P2;PMS_P1;PMS_P2;Temp;Humidity;BMP_temperature;BMP_pressure;BME280_temperature;BME280_humidity;BME280_pressure;Samples;Min_cycle;Max_cycle;Signal;HPM_P1;HPM_P2
2022/12/26 00:00:31;;;;;;;56.07;29.47;;;;;;;;;;5093233;28;20268;-59
2022/12/26 00:03:19;;;;;;;37.20;19.93;;;;;;;;;;5093693;28;20215;-58
2022/12/26 00:05:46;;;;;;;63.20;27.87;;;;;;;;;;5093191;28;20313;-59
2022/12/26 00:08:13;;;;;;;67.37;26.47;;;;;;;;;;5093414;28;20291;-60
2022/12/26 00:10:40;;;;;;;72.33;28.50;;;;;;;;;;5092780;28;20222;-60
2022/12/26 00:13:08;;;;;;;64.27;26.80;;;;;;;;;;5093475;28;20722;-60
2022/12/26 00:15:55;;;;;;;53.67;22.57;;;;;;;;;;5072848;28;20293;-60
2022/12/26 00:18:22;;;;;;;62.33;26.03;;;;;;;;;;5072731;28;20562;-62
2022/12/26 00:20:49;;;;;;;52.60;27.70;;;;;;;;;;5072915;28;20219;-60
2022/12/26 00:23:16;;;;;;;63.20;39.30;;;;;;;;;;5072888;28;20551;-62
2022/12/26 00:25:43;;;;;;;41.80;24.20;;;;;;;;;;5072591;28;20559;-60
2022/12/26 00:28:10;;;;;;;35.33;19.40;;;;;;;;;;5073228;28;20231;-60
2022/12/26 00:30:37;;;;;;;38.47;19.13;;;;;;;;;;5072645;28;20247;-60
2022/12/26 00:33:04;;;;;;;50.40;22.83;;;;;;;;;;5072923;28;20227;-61
2022/12/26 00:35:31;;;;;;;75.83;28.93;;;;;;;;;;5072911;28;20223;-59
2022/12/26 00:37:59;;;;;;;57.83;24.47;;;;;;;;;;5072878;28;20250;-60
2022/12/26 00:40:26;;;;;;;40.47;20.10;;;;;;;;;;5072287;28;20254;-59
2022/12/26 00:42:53;;;;;;;51.97;22.97;;;;;;;;;;5100900;27;20233;-60
2022/12/26 00:45:20;;;;;;;61.50;29.37;;;;;;;;;;5095583;28;20242;-60
2022/12/26 00:47:47;;;;;;;47.57;23.93;;;;;;;;;;5093512;28;20219;-61
2022/12/26 00:50:14;;;;;;;38.20;19.80;;;;;;;;;;5093727;28;20222;-59
2022/12/26 00:52:42;;;;;;;39.30;19.67;;;;;;;;;;5093889;28;20229;-59
2022/12/26 00:55:09;;;;;;;49.70;21.80;;;;;;;;;;5097756;28;20229;-59
2022/12/26 00:57:36;;;;;;;69.90;27.50;;;;;;;;;;5097750;28;20214;-59
2022/12/26 01:00:04;;;;;;;59.80;23.60;;;;;;;;;;5097515;28;20786;-59
2022/12/26 01:02:37;;;;;;;269.83;129.50;;;;;;;;;;5097798;28;20203;-59
2022/12/26 01:05:09;;;;;;;104.17;74.97;;;;;;;;;;5098010;28;20226;-61
2022/12/26 01:07:38;;;;;;;61.63;32.67;;;;;;;;;;5097655;28;20202;-59
2022/12/26 01:10:25;;;;;;;40.57;20.73;;;;;;;;;;5097494;28;20224;-60
2022/12/26 01:12:52;;;;;;;43.60;20.50;;;;;;;;;;5097398;28;20264;-59
2022/12/26 01:15:19;;;;;;;42.90;21.83;;;;;;;;;;5096671;28;20225;-61
2022/12/26 01:17:47;;;;;;;45.70;21.90;;;;;;;;;;5097425;28;20202;-59
2022/12/26 01:20:14;;;;;;;45.63;20.70;;;;;;;;;;5097523;28;20230;-59
2022/12/26 01:22:41;;;;;;;53.57;23.23;;;;;;;;;;5097064;28;20230;-59
2022/12/26 01:25:10;;;;;;;96.93;44.77;;;;;;;;;;5097476;28;20210;-59
2022/12/26 01:27:37;;;;;;;50.33;24.77;;;;;;;;;;5096448;28;20195;-60
2022/12/26 01:30:05;;;;;;;86.83;55.37;;;;;;;;;;5097227;28;20211;-59
2022/12/26 01:32:32;;;;;;;72.40;36.17;;;;;;;;;;5097173;28;20203;-59
2022/12/26 01:34:59;;;;;;;47.87;24.20;;;;;;;;;;5097297;28;20260;-59
2022/12/26 01:37:26;;;;;;;39.47;21.13;;;;;;;;;;5096887;28;20199;-59
2022/12/26 01:39:53;;;;;;;58.10;23.87;;;;;;;;;;5097300;28;20223;-60
2022/12/26 01:42:23;;;;;;;49.40;22.77;;;;;;;;;;5097029;28;20273;-60
2022/12/26 01:44:55;;;;;;;61.97;25.67;;;;;;;;;;5096938;28;20225;-61
2022/12/26 01:47:26;;;;;;;57.47;22.63;;;;;;;;;;5097128;28;20220;-59
2022/12/26 01:49:53;;;;;;;59.20;23.13;;;;;;;;;;5095994;28;20580;-60
2022/12/26 01:52:29;;;;;;;64.03;29.73;;;;;;;;;;5096904;28;20218;-60
2022/12/26 01:54:56;;;;;;;46.33;21.57;;;;;;;;;;5095782;28;20198;-59
2022/12/26 01:57:30;;;;;;;52.90;25.63;;;;;;;;;;5096536;28;20211;-59
2022/12/26 01:59:59;;;;;;;45.10;20.80;;;;;;;;;;5095683;28;20525;-60
2022/12/26 02:02:28;;;;;;;44.83;20.37;;;;;;;;;;5095520;28;20214;-60
2022/12/26 02:07:43;;;;;;;55.73;22.03;;;;;;;;;;5095581;28;20237;-60
2022/12/26 02:10:17;;;;;;;51.27;21.87;;;;;;;;;;5096379;28;20199;-59
2022/12/26 02:12:44;;;;;;;48.90;20.70;;;;;;;;;;5095548;28;20869;-60
2022/12/26 02:15:14;;;;;;;44.90;19.50;;;;;;;;;;5096486;28;20213;-59
2022/12/26 02:17:42;;;;;;;46.90;18.93;;;;;;;;;;5096124;28;20214;-59
2022/12/26 02:20:15;;;;;;;48.77;20.17;;;;;;;;;;5096371;28;20219;-60
2022/12/26 02:23:00;;;;;;;38.03;17.67;;;;;;;;;;5096299;28;20253;-59
2022/12/26 02:26:09;;;;;;;37.23;18.47;;;;;;;;;;5096260;28;20187;-60
2022/12/26 02:29:18;;;;;;;33.10;16.57;;;;;;;;;;5053888;28;20204;-61
2022/12/26 02:32:03;;;;;;;35.07;16.17;;;;;;;;;;4994513;28;20309;-60
2022/12/26 02:34:59;;;;;;;36.73;16.63;;;;;;;;;;5048464;28;20207;-60
2022/12/26 02:37:48;;;;;;;33.10;16.60;;;;;;;;;;5037544;28;20552;-60
2022/12/26 02:40:23;;;;;;;34.60;17.70;;;;;;;;;;5053803;28;20212;-59
2022/12/26 02:43:29;;;;;;;38.93;19.07;;;;;;;;;;5037279;28;20253;-60
2022/12/26 02:48:57;;;;;;;34.00;17.33;;;;;;;;;;5053609;28;20236;-60
2022/12/26 03:14:56;;;;;;;54.80;25.97;;;;;;;;;;5094295;28;20211;-59
2022/12/26 03:17:30;;;;;;;41.20;20.60;;;;;;;;;;5094318;28;20586;-59
2022/12/26 03:20:03;;;;;;;40.70;25.23;;;;;;;;;;5094590;28;20210;-59
2022/12/26 03:22:36;;;;;;;41.17;22.93;;;;;;;;;;5093994;28;20222;-59
2022/12/26 03:28:02;;;;;;;30.43;16.87;;;;;;;;;;5094114;28;20537;-59
2022/12/26 03:30:48;;;;;;;43.27;17.70;;;;;;;;;;5095117;28;20553;-60
2022/12/26 03:36:04;;;;;;;47.90;21.10;;;;;;;;;;5094768;28;20206;-59
2022/12/26 03:38:50;;;;;;;53.63;22.27;;;;;;;;;;5093832;28;20272;-59
2022/12/26 04:19:37;;;;;;;34.83;17.30;;;;;;;;;;5093380;28;20561;-62
2022/12/26 04:45:15;;;;;;;58.97;24.37;;;;;;;;;;5089972;28;20217;-59
2022/12/26 04:50:10;;;;;;;51.07;22.10;;;;;;;;;;5098534;28;20206;-59
2022/12/26 04:50:29;;;;;;;55.17;24.33;;;;;;;;;;5100876;28;20282;-61
2022/12/26 04:53:00;;;;;;;47.53;21.97;;;;;;;;;;5100519;28;20634;-59
2022/12/26 04:55:31;;;;;;;36.87;18.67;;;;;;;;;;5100497;28;20263;-63
2022/12/26 04:57:59;;;;;;;41.70;22.20;;;;;;;;;;5080398;28;20195;-60
2022/12/26 05:00:27;;;;;;;44.80;26.13;;;;;;;;;;5080074;28;20231;-60
2022/12/26 05:11:23;;;;;;;38.53;20.13;;;;;;;;;;5065610;28;20203;-59
2022/12/26 05:13:52;;;;;;;36.87;18.93;;;;;;;;;;5079945;28;20521;-60
2022/12/26 05:30:20;;;;;;;43.67;21.73;;;;;;;;;;5080050;28;20298;-59
2022/12/26 05:35:34;;;;;;;57.80;23.83;;;;;;;;;;5080096;28;20264;-59
2022/12/26 05:38:02;;;;;;;135.03;91.60;;;;;;;;;;5079817;28;20237;-59
2022/12/26 05:40:29;;;;;;;64.63;42.10;;;;;;;;;;5075003;28;20640;-59
2022/12/26 05:42:56;;;;;;;45.73;23.17;;;;;;;;;;5076835;28;20199;-58
2022/12/26 05:45:23;;;;;;;38.17;19.73;;;;;;;;;;5076786;28;20191;-58
2022/12/26 05:47:57;;;;;;;37.40;18.77;;;;;;;;;;5076768;28;20211;-59
2022/12/26 05:50:24;;;;;;;32.37;18.67;;;;;;;;;;5076743;28;20277;-59
2022/12/26 05:52:51;;;;;;;32.83;17.70;;;;;;;;;;5076383;28;20632;-58
2022/12/26 05:55:18;;;;;;;36.20;18.20;;;;;;;;;;5076469;28;20261;-59
2022/12/26 05:57:45;;;;;;;48.27;20.97;;;;;;;;;;5076310;28;20713;-59
2022/12/26 06:00:13;;;;;;;49.00;23.83;;;;;;;;;;5076231;28;20676;-59
2022/12/26 06:02:41;;;;;;;34.90;20.10;;;;;;;;;;5076264;28;20196;-60
2022/12/26 06:05:09;;;;;;;49.47;23.17;;;;;;;;;;5076426;28;20203;-59
2022/12/26 06:07:37;;;;;;;42.43;26.07;;;;;;;;;;5076087;28;20203;-61
2022/12/26 06:10:05;;;;;;;35.70;20.53;;;;;;;;;;5076229;28;20222;-59
2022/12/26 06:12:33;;;;;;;30.10;18.60;;;;;;;;;;5075947;28;20608;-59
2022/12/26 06:15:00;;;;;;;33.53;18.07;;;;;;;;;;5076092;28;20210;-60
2022/12/26 06:17:28;;;;;;;31.53;17.97;;;;;;;;;;5075969;28;20230;-59
2022/12/26 06:19:55;;;;;;;45.13;20.97;;;;;;;;;;5075845;28;20295;-60
2022/12/26 06:22:22;;;;;;;57.30;24.03;;;;;;;;;;5076035;28;20231;-62
2022/12/26 06:24:49;;;;;;;60.33;25.63;;;;;;;;;;5075707;28;20206;-60
2022/12/26 06:27:17;;;;;;;78.47;29.87;;;;;;;;;;5075577;28;20281;-59
2022/12/26 06:29:44;;;;;;;40.33;22.53;;;;;;;;;;5075505;28;20203;-63
2022/12/26 06:32:12;;;;;;;31.93;17.90;;;;;;;;;;5075817;28;20269;-59
2022/12/26 06:34:39;;;;;;;30.47;16.87;;;;;;;;;;5075562;28;20223;-60
2022/12/26 06:37:06;;;;;;;35.90;17.90;;;;;;;;;;5075691;28;20199;-60
2022/12/26 06:39:33;;;;;;;42.73;20.67;;;;;;;;;;5075359;28;20195;-60
2022/12/26 06:42:00;;;;;;;43.90;21.30;;;;;;;;;;5075478;28;20532;-60
2022/12/26 06:44:27;;;;;;;65.70;26.03;;;;;;;;;;5075516;28;20199;-60
2022/12/26 06:46:55;;;;;;;68.90;52.27;;;;;;;;;;5075191;28;20219;-60
2022/12/26 06:49:24;;;;;;;49.20;29.60;;;;;;;;;;5075250;28;20257;-62
2022/12/26 06:51:59;;;;;;;42.73;22.37;;;;;;;;;;5073998;28;20211;-59
2022/12/26 06:54:26;;;;;;;28.23;16.23;;;;;;;;;;5075028;28;20633;-60
2022/12/26 06:56:53;;;;;;;29.73;16.67;;;;;;;;;;5075194;28;20210;-59
2022/12/26 06:59:20;;;;;;;31.07;16.80;;;;;;;;;;5075034;28;20698;-59
2022/12/26 07:01:47;;;;;;;35.17;17.77;;;;;;;;;;5074904;28;20308;-60
2022/12/26 07:04:15;;;;;;;44.13;21.93;;;;;;;;;;5074937;28;20199;-61
2022/12/26 07:06:42;;;;;;;52.77;22.70;;;;;;;;;;5074738;28;20636;-59
2022/12/26 07:09:13;;;;;;;68.77;29.30;;;;;;;;;;5074980;28;20241;-59
2022/12/26 07:11:43;;;;;;;30.73;17.63;;;;;;;;;;5074922;28;20241;-60
2022/12/26 07:14:13;;;;;;;33.20;16.87;;;;;;;;;;5074897;28;20203;-59
2022/12/26 07:16:41;;;;;;;31.87;16.90;;;;;;;;;;5087473;28;20264;-59
2022/12/26 07:19:13;;;;;;;44.13;21.90;;;;;;;;;;5094341;28;20229;-59
2022/12/26 07:21:41;;;;;;;51.70;22.97;;;;;;;;;;5094119;28;20242;-60
2022/12/26 07:24:16;;;;;;;70.80;28.37;;;;;;;;;;5094224;28;20222;-62
2022/12/26 07:26:44;;;;;;;61.97;23.87;;;;;;;;;;5094377;28;20235;-59
2022/12/26 07:29:12;;;;;;;73.90;49.53;;;;;;;;;;5094237;28;20233;-60
2022/12/26 07:31:39;;;;;;;46.53;28.73;;;;;;;;;;5093500;28;20218;-60
2022/12/26 07:34:06;;;;;;;38.23;21.70;;;;;;;;;;5093871;28;20226;-61
2022/12/26 07:36:34;;;;;;;37.33;18.03;;;;;;;;;;5093012;28;20230;-51
2022/12/26 07:39:01;;;;;;;32.80;18.33;;;;;;;;;;5094049;28;20226;-59
2022/12/26 07:44:14;;;;;;;55.13;24.70;;;;;;;;;;5093721;28;20595;-60
2022/12/26 07:46:42;;;;;;;51.87;24.30;;;;;;;;;;5093728;28;20226;-59
2022/12/26 07:49:11;;;;;;;52.13;24.73;;;;;;;;;;5093850;28;20249;-59
2022/12/26 07:51:38;;;;;;;48.40;27.73;;;;;;;;;;5093545;28;20321;-60
2022/12/26 07:54:05;;;;;;;45.33;25.73;;;;;;;;;;5093977;28;20226;-60
2022/12/26 07:56:38;;;;;;;60.53;39.73;;;;;;;;;;5093504;28;20699;-60
2022/12/26 07:59:05;;;;;;;79.60;42.50;;;;;;;;;;5093728;28;20285;-53
2022/12/26 08:01:32;;;;;;;68.57;35.73;;;;;;;;;;5092754;28;20234;-60
2022/12/26 08:04:00;;;;;;;39.13;21.53;;;;;;;;;;5093649;28;20218;-61
2022/12/26 08:06:27;;;;;;;40.37;19.63;;;;;;;;;;5093302;28;20561;-59
2022/12/26 08:08:54;;;;;;;63.97;28.37;;;;;;;;;;5092096;28;20582;-59
2022/12/26 08:11:23;;;;;;;57.57;26.97;;;;;;;;;;5091962;28;20214;-59
2022/12/26 08:13:51;;;;;;;53.33;25.20;;;;;;;;;;5093165;28;20226;-60
2022/12/26 08:16:18;;;;;;;64.73;27.60;;;;;;;;;;5092902;28;20231;-60
2022/12/26 08:18:46;;;;;;;45.30;23.87;;;;;;;;;;5093414;28;20256;-61
2022/12/26 08:21:13;;;;;;;53.97;28.30;;;;;;;;;;5093223;28;20271;-57
2022/12/26 08:23:40;;;;;;;50.03;26.57;;;;;;;;;;5092902;28;20291;-60
2022/12/26 08:26:10;;;;;;;51.10;27.70;;;;;;;;;;5087637;28;20617;-62
2022/12/26 08:28:40;;;;;;;43.83;22.57;;;;;;;;;;5073106;28;20227;-59
2022/12/26 08:31:09;;;;;;;46.77;24.33;;;;;;;;;;5073086;28;20722;-61
2022/12/26 08:33:36;;;;;;;51.53;23.17;;;;;;;;;;5086169;28;20231;-60
2022/12/26 08:36:05;;;;;;;45.43;23.87;;;;;;;;;;5093322;28;20222;-61
2022/12/26 08:38:32;;;;;;;48.90;25.63;;;;;;;;;;5092982;28;20646;-59
2022/12/26 08:41:00;;;;;;;87.57;34.70;;;;;;;;;;5093035;28;20234;-60
2022/12/26 08:43:28;;;;;;;53.10;25.50;;;;;;;;;;5093054;28;20253;-61
2022/12/26 08:46:16;;;;;;;48.47;25.77;;;;;;;;;;5092967;28;20667;-60
2022/12/26 08:48:44;;;;;;;47.87;24.17;;;;;;;;;;5093127;28;20225;-59
2022/12/26 08:51:20;;;;;;;55.13;29.73;;;;;;;;;;5093065;28;20280;-59
2022/12/26 08:53:48;;;;;;;50.73;25.07;;;;;;;;;;5092203;28;20236;-61
2022/12/26 08:56:19;;;;;;;47.63;25.00;;;;;;;;;;5092596;28;20234;-59
2022/12/26 08:58:46;;;;;;;50.03;23.33;;;;;;;;;;5092931;28;20247;-57
2022/12/26 09:01:18;;;;;;;59.80;27.20;;;;;;;;;;5092734;28;20569;-59
2022/12/26 09:03:46;;;;;;;46.07;23.93;;;;;;;;;;5093326;28;20225;-60
2022/12/26 09:06:14;;;;;;;90.50;35.43;;;;;;;;;;5092885;28;20218;-59
2022/12/26 09:08:41;;;;;;;68.50;31.50;;;;;;;;;;5092918;28;20230;-60
2022/12/26 09:11:14;;;;;;;64.70;30.20;;;;;;;;;;5092607;28;20234;-60
2022/12/26 09:13:42;;;;;;;56.83;29.80;;;;;;;;;;5092894;28;20222;-60
2022/12/26 09:16:15;;;;;;;76.20;30.67;;;;;;;;;;5096321;28;20695;-61
2022/12/26 09:18:43;;;;;;;43.80;23.63;;;;;;;;;;5096685;28;20300;-60
2022/12/26 09:21:12;;;;;;;51.57;26.77;;;;;;;;;;5096313;28;20223;-59
2022/12/26 09:23:40;;;;;;;51.60;25.97;;;;;;;;;;5096541;28;20240;-59
2022/12/26 09:26:08;;;;;;;47.93;24.80;;;;;;;;;;5096199;28;20527;-60
2022/12/26 09:28:35;;;;;;;46.37;24.70;;;;;;;;;;5096411;28;20691;-59
2022/12/26 09:31:07;;;;;;;51.50;24.40;;;;;;;;;;5086998;28;20525;-60
2022/12/26 09:33:37;;;;;;;43.10;22.90;;;;;;;;;;5096610;28;20241;-59
2022/12/26 09:36:13;;;;;;;49.43;22.97;;;;;;;;;;5095200;28;20643;-60
2022/12/26 09:38:42;;;;;;;44.73;23.07;;;;;;;;;;5096876;28;20190;-59
2022/12/26 09:41:32;;;;;;;43.83;24.20;;;;;;;;;;5096837;28;20682;-59
2022/12/26 09:44:29;;;;;;;39.57;21.97;;;;;;;;;;5097377;28;20198;-60
2022/12/26 09:47:00;;;;;;;43.80;23.20;;;;;;;;;;5096857;28;20217;-61
2022/12/26 09:49:30;;;;;;;47.77;23.20;;;;;;;;;;5096551;28;20230;-61
2022/12/26 09:52:00;;;;;;;45.13;24.37;;;;;;;;;;5095876;28;20632;-60
2022/12/26 09:54:34;;;;;;;51.63;26.60;;;;;;;;;;5096931;28;20290;-60
2022/12/26 09:57:05;;;;;;;51.50;24.60;;;;;;;;;;5096109;28;20206;-60
2022/12/26 09:59:46;;;;;;;45.07;22.63;;;;;;;;;;5096603;28;20212;-60
2022/12/26 10:02:19;;;;;;;44.23;22.80;;;;;;;;;;5095638;28;20215;-59
2022/12/26 10:04:46;;;;;;;46.27;23.10;;;;;;;;;;5096021;28;20195;-59
2022/12/26 10:07:23;;;;;;;39.83;22.23;;;;;;;;;;5093551;28;20658;-59
2022/12/26 10:10:10;;;;;;;37.93;21.30;;;;;;;;;;5088821;28;20234;-60
2022/12/26 10:12:38;;;;;;;44.33;25.20;;;;;;;;;;5095615;28;20219;-60
2022/12/26 10:15:34;;;;;;;39.30;20.33;;;;;;;;;;5094455;28;20226;-59
2022/12/26 10:18:18;;;;;;;55.70;26.23;;;;;;;;;;5092662;28;20225;-60
2022/12/26 10:21:20;;;;;;;42.87;24.17;;;;;;;;;;5092228;28;20222;-63
2022/12/26 10:23:56;;;;;;;45.70;23.03;;;;;;;;;;5074071;28;20231;-62
2022/12/26 10:26:29;;;;;;;41.53;19.83;;;;;;;;;;5073621;28;20219;-60
2022/12/26 10:29:19;;;;;;;33.33;19.13;;;;;;;;;;5073624;28;20300;-59
2022/12/26 10:31:53;;;;;;;37.60;19.43;;;;;;;;;;5069508;28;20226;-61
2022/12/26 10:34:25;;;;;;;34.83;20.30;;;;;;;;;;5075134;28;20219;-62
2022/12/26 10:37:27;;;;;;;36.17;20.80;;;;;;;;;;5052611;28;20266;-62
2022/12/26 10:39:55;;;;;;;34.17;18.10;;;;;;;;;;4972900;28;20223;-59
2022/12/26 10:42:27;;;;;;;34.07;19.47;;;;;;;;;;4989762;28;20238;-59
2022/12/26 10:44:54;;;;;;;36.67;20.53;;;;;;;;;;4973940;28;20699;-56
2022/12/26 10:47:39;;;;;;;63.03;29.77;;;;;;;;;;4973910;28;20289;-62
2022/12/26 10:50:14;;;;;;;40.47;21.90;;;;;;;;;;4957490;28;20231;-60
2022/12/26 10:52:41;;;;;;;34.73;18.57;;;;;;;;;;4957649;28;20233;-64
2022/12/26 10:55:16;;;;;;;34.20;17.30;;;;;;;;;;4971730;28;20627;-60
2022/12/26 10:57:59;;;;;;;33.30;16.37;;;;;;;;;;4992593;28;20216;-61
2022/12/26 11:00:27;;;;;;;30.33;16.90;;;;;;;;;;4976484;28;20229;-63
2022/12/26 11:03:06;;;;;;;33.70;16.77;;;;;;;;;;4993175;28;20249;-60
2022/12/26 11:05:37;;;;;;;28.10;16.53;;;;;;;;;;4992610;28;20312;-60
2022/12/26 11:08:26;;;;;;;35.67;18.47;;;;;;;;;;4990139;28;20240;-61
2022/12/26 11:11:02;;;;;;;38.70;17.77;;;;;;;;;;5031486;28;20225;-60
2022/12/26 11:13:34;;;;;;;31.60;17.33;;;;;;;;;;5015684;28;20564;-60
2022/12/26 11:16:01;;;;;;;36.20;17.30;;;;;;;;;;5092763;27;20235;-61
2022/12/26 11:18:49;;;;;;;31.53;17.63;;;;;;;;;;5093755;28;20258;-61
2022/12/26 11:21:16;;;;;;;36.50;17.00;;;;;;;;;;5093918;28;20647;-60
2022/12/26 11:23:45;;;;;;;34.47;17.03;;;;;;;;;;5093547;28;20223;-59
2022/12/26 11:26:26;;;;;;;33.03;18.10;;;;;;;;;;5094084;28;20740;-59
2022/12/26 11:29:16;;;;;;;34.30;17.03;;;;;;;;;;5094357;28;20238;-59
2022/12/26 11:31:52;;;;;;;33.00;17.03;;;;;;;;;;5093503;28;20235;-59
2022/12/26 11:34:49;;;;;;;31.80;18.07;;;;;;;;;;5094116;28;20222;-62
2022/12/26 11:37:29;;;;;;;30.50;17.20;;;;;;;;;;5092162;28;20758;-60
2022/12/26 11:39:57;;;;;;;35.83;18.27;;;;;;;;;;5092840;28;20242;-64
2022/12/26 11:42:24;;;;;;;34.50;18.20;;;;;;;;;;5093150;28;20563;-59
2022/12/26 11:44:54;;;;;;;30.87;17.07;;;;;;;;;;5093113;28;20263;-59
2022/12/26 11:47:25;;;;;;;30.30;17.00;;;;;;;;;;5092474;28;20230;-58
2022/12/26 11:50:19;;;;;;;34.60;18.33;;;;;;;;;;5093558;28;20226;-63
2022/12/26 11:52:55;;;;;;;33.13;18.40;;;;;;;;;;5093250;28;20303;-62
2022/12/26 11:55:22;;;;;;;35.37;17.23;;;;;;;;;;5093748;28;20214;-62
2022/12/26 11:58:06;;;;;;;32.30;17.90;;;;;;;;;;5093565;28;20709;-64
2022/12/26 12:00:38;;;;;;;34.63;19.30;;;;;;;;;;5093465;28;20309;-61
2022/12/26 12:03:12;;;;;;;37.10;18.87;;;;;;;;;;5092506;28;20597;-61
2022/12/26 12:05:45;;;;;;;40.87;20.20;;;;;;;;;;5093368;28;20658;-62
2022/12/26 12:09:00;;;;;;;33.80;19.17;;;;;;;;;;5093101;28;20246;-64
2022/12/26 12:11:31;;;;;;;38.53;18.40;;;;;;;;;;5050730;28;20270;-62
2022/12/26 12:14:05;;;;;;;34.87;18.20;;;;;;;;;;5051137;28;20232;-60
2022/12/26 12:16:51;;;;;;;35.63;19.73;;;;;;;;;;5050865;28;20235;-59
2022/12/26 12:19:36;;;;;;;35.03;18.23;;;;;;;;;;5051057;28;20220;-60
2022/12/26 12:22:16;;;;;;;35.40;19.17;;;;;;;;;;5049708;28;20239;-55
2022/12/26 12:25:08;;;;;;;35.40;18.73;;;;;;;;;;5050977;28;20594;-58
2022/12/26 12:27:41;;;;;;;35.13;19.27;;;;;;;;;;5050278;28;20237;-60
2022/12/26 12:30:16;;;;;;;36.53;20.30;;;;;;;;;;5033388;28;20239;-61
2022/12/26 12:33:04;;;;;;;37.90;19.93;;;;;;;;;;5050431;28;20250;-60
2022/12/26 12:35:50;;;;;;;35.77;19.53;;;;;;;;;;5050763;28;20293;-61
2022/12/26 12:38:20;;;;;;;38.33;20.40;;;;;;;;;;5067081;28;20227;-62
2022/12/26 12:41:15;;;;;;;35.50;19.27;;;;;;;;;;5051297;28;20244;-64
2022/12/26 12:43:43;;;;;;;37.80;20.70;;;;;;;;;;5049181;28;20413;-60
2022/12/26 12:46:25;;;;;;;35.13;19.43;;;;;;;;;;5066935;28;20281;-60
2022/12/26 12:49:07;;;;;;;40.53;20.63;;;;;;;;;;5081125;28;20222;-61
2022/12/26 12:51:49;;;;;;;40.43;20.60;;;;;;;;;;5097158;28;20218;-60
2022/12/26 12:54:55;;;;;;;32.93;19.63;;;;;;;;;;5096045;28;20279;-60
2022/12/26 12:57:40;;;;;;;41.00;20.73;;;;;;;;;;5096129;28;20237;-62
2022/12/26 13:00:10;;;;;;;37.43;19.20;;;;;;;;;;5097247;28;20292;-63
2022/12/26 13:02:58;;;;;;;40.27;20.97;;;;;;;;;;5097051;28;20230;-60
2022/12/26 13:05:38;;;;;;;41.07;22.27;;;;;;;;;;5107437;28;20313;-61
2022/12/26 13:08:20;;;;;;;39.77;22.00;;;;;;;;;;5090553;28;20553;-62
2022/12/26 13:10:54;;;;;;;43.13;25.97;;;;;;;;;;5075734;28;20215;-59
2022/12/26 13:13:29;;;;;;;38.60;24.40;;;;;;;;;;5076178;28;20292;-62
2022/12/26 13:16:05;;;;;;;38.17;22.37;;;;;;;;;;5076765;28;20234;-61
2022/12/26 13:18:36;;;;;;;42.73;25.73;;;;;;;;;;5086330;28;20206;-61
2022/12/26 13:21:09;;;;;;;37.87;22.20;;;;;;;;;;5094887;28;20218;-58
2022/12/26 13:26:56;;;;;;;37.03;20.63;;;;;;;;;;5089855;28;20217;-62
2022/12/26 13:29:26;;;;;;;38.77;21.07;;;;;;;;;;5093574;28;20662;-60
2022/12/26 13:31:53;;;;;;;36.93;20.87;;;;;;;;;;5091520;28;20245;-60
2022/12/26 13:34:21;;;;;;;37.47;20.97;;;;;;;;;;5089444;28;20222;-61
2022/12/26 13:36:51;;;;;;;42.87;25.33;;;;;;;;;;5093564;28;20218;-60
2022/12/26 13:39:24;;;;;;;37.37;20.90;;;;;;;;;;5094372;28;20675;-60
2022/12/26 13:44:39;;;;;;;37.50;20.30;;;;;;;;;;5093417;28;20336;-62
2022/12/26 13:47:36;;;;;;;43.93;21.80;;;;;;;;;;5094698;28;20569;-61
2022/12/26 13:50:40;;;;;;;37.13;20.40;;;;;;;;;;5089817;28;20226;-59
2022/12/26 13:53:36;;;;;;;39.13;20.97;;;;;;;;;;5093705;28;21769;-61
2022/12/26 13:56:29;;;;;;;34.90;20.00;;;;;;;;;;5091498;28;20215;-60
2022/12/26 13:59:24;;;;;;;35.33;19.97;;;;;;;;;;5093662;28;20317;-63
2022/12/26 14:02:01;;;;;;;42.90;23.97;;;;;;;;;;5091178;28;20225;-61
2022/12/26 14:04:57;;;;;;;37.67;21.10;;;;;;;;;;5089228;28;20685;-63
2022/12/26 14:07:25;;;;;;;53.43;32.77;;;;;;;;;;5091743;28;20229;-60
2022/12/26 14:09:55;;;;;;;50.27;31.43;;;;;;;;;;5093840;28;20244;-61
2022/12/26 14:12:53;;;;;;;43.03;23.73;;;;;;;;;;5094070;28;20229;-62
2022/12/26 14:15:40;;;;;;;40.07;22.30;;;;;;;;;;5091562;28;20226;-62
2022/12/26 14:18:13;;;;;;;38.30;20.30;;;;;;;;;;5091858;28;20238;-61
2022/12/26 14:20:45;;;;;;;35.47;21.70;;;;;;;;;;5084924;28;20309;-62
2022/12/26 14:23:44;;;;;;;35.77;19.97;;;;;;;;;;5091760;28;20241;-62
2022/12/26 14:26:34;;;;;;;42.03;21.27;;;;;;;;;;5092050;28;20276;-61
2022/12/26 14:29:10;;;;;;;41.03;20.27;;;;;;;;;;5074546;28;20231;-65
2022/12/26 14:31:45;;;;;;;37.07;20.70;;;;;;;;;;5073917;28;20536;-62
2022/12/26 14:34:37;;;;;;;35.57;19.70;;;;;;;;;;5074791;28;20285;-63
2022/12/26 14:37:38;;;;;;;40.93;20.47;;;;;;;;;;5094336;28;20338;-62
2022/12/26 14:40:26;;;;;;;42.67;21.17;;;;;;;;;;5072007;28;20223;-63
2022/12/26 14:43:11;;;;;;;36.30;20.20;;;;;;;;;;5055842;28;20302;-62
2022/12/26 14:45:49;;;;;;;37.40;21.03;;;;;;;;;;5071983;28;20249;-65
2022/12/26 14:48:16;;;;;;;34.60;19.73;;;;;;;;;;5056256;28;20691;-60
2022/12/26 14:50:53;;;;;;;35.80;20.23;;;;;;;;;;5071758;28;20227;-60
2022/12/26 14:53:23;;;;;;;30.93;20.27;;;;;;;;;;5072264;28;20721;-60
2022/12/26 14:55:56;;;;;;;33.23;19.50;;;;;;;;;;5091372;28;20720;-61
2022/12/26 14:58:43;;;;;;;30.77;18.93;;;;;;;;;;5092101;28;20264;-60
2022/12/26 15:01:19;;;;;;;77.10;45.70;;;;;;;;;;5075600;28;20283;-61
2022/12/26 15:04:05;;;;;;;38.60;22.80;;;;;;;;;;5092434;28;20256;-61
2022/12/26 15:06:41;;;;;;;42.33;23.93;;;;;;;;;;5091522;28;20576;-61
2022/12/26 15:09:26;;;;;;;39.70;21.53;;;;;;;;;;5092434;28;20232;-61
2022/12/26 15:12:15;;;;;;;40.67;22.93;;;;;;;;;;5084744;28;20238;-61
2022/12/26 15:15:13;;;;;;;37.27;21.60;;;;;;;;;;5070065;28;20235;-64
2022/12/26 15:17:40;;;;;;;32.87;20.27;;;;;;;;;;5079417;28;20222;-63
2022/12/26 15:20:26;;;;;;;44.07;22.67;;;;;;;;;;5093832;28;20592;-61
2022/12/26 15:23:09;;;;;;;37.83;21.57;;;;;;;;;;5092423;28;20237;-63
2022/12/26 15:25:51;;;;;;;55.37;27.23;;;;;;;;;;5092524;28;20609;-63
2022/12/26 15:28:48;;;;;;;42.27;24.23;;;;;;;;;;5094256;28;20226;-62
2022/12/26 15:31:18;;;;;;;35.43;20.40;;;;;;;;;;5093375;28;20231;-63
2022/12/26 15:34:03;;;;;;;39.03;21.43;;;;;;;;;;5093887;28;20534;-63
2022/12/26 15:36:41;;;;;;;91.33;41.60;;;;;;;;;;5093563;28;20230;-62
2022/12/26 15:39:34;;;;;;;45.60;23.07;;;;;;;;;;5093867;28;20226;-62
2022/12/26 15:42:26;;;;;;;46.00;22.37;;;;;;;;;;5093650;28;20235;-60
2022/12/26 15:44:56;;;;;;;36.03;22.53;;;;;;;;;;5092751;28;20214;-60
2022/12/26 15:47:44;;;;;;;43.70;25.92;;;;;;;;;;5092514;28;20232;-61
2022/12/26 15:50:24;;;;;;;67.73;27.23;;;;;;;;;;5089387;28;20227;-60
2022/12/26 15:53:35;;;;;;;57.60;26.37;;;;;;;;;;5088847;28;20261;-60
2022/12/26 15:56:44;;;;;;;44.83;24.13;;;;;;;;;;5072839;28;20233;-61
2022/12/26 15:59:49;;;;;;;56.63;34.03;;;;;;;;;;5089769;28;20234;-62
2022/12/26 16:02:25;;;;;;;35.77;20.90;;;;;;;;;;5090288;28;20214;-58
2022/12/26 16:04:57;;;;;;;53.97;26.47;;;;;;;;;;5089487;28;20210;-59
2022/12/26 16:07:45;;;;;;;133.33;49.60;;;;;;;;;;5091865;28;20241;-63
2022/12/26 16:10:24;;;;;;;98.00;41.00;;;;;;;;;;5092261;27;20272;-61
2022/12/26 16:13:05;;;;;;;74.67;41.83;;;;;;;;;;5093296;28;20238;-62
2022/12/26 16:15:33;;;;;;;113.97;70.07;;;;;;;;;;5093125;27;20236;-64
2022/12/26 16:18:18;;;;;;;40.27;24.90;;;;;;;;;;5091748;28;20572;-64
2022/12/26 16:23:37;;;;;;;69.20;34.53;;;;;;;;;;5092776;28;20320;-64
2022/12/26 16:26:05;;;;;;;54.23;27.47;;;;;;;;;;5090158;28;20214;-62
2022/12/26 16:28:40;;;;;;;50.07;26.80;;;;;;;;;;5092972;28;20218;-63
2022/12/26 16:31:08;;;;;;;126.33;58.97;;;;;;;;;;5091544;28;20224;-62
2022/12/26 16:33:40;;;;;;;67.87;40.70;;;;;;;;;;5091652;28;20234;-64
2022/12/26 16:36:09;;;;;;;39.43;24.37;;;;;;;;;;5091828;28;20218;-63
2022/12/26 16:38:36;;;;;;;71.77;33.27;;;;;;;;;;5091912;28;20687;-63
2022/12/26 16:41:24;;;;;;;127.40;53.80;;;;;;;;;;5092854;28;20230;-63
2022/12/26 16:43:53;;;;;;;89.23;34.87;;;;;;;;;;5092856;28;20651;-62
2022/12/26 16:46:23;;;;;;;47.50;26.60;;;;;;;;;;5092797;28;20260;-61
2022/12/26 16:48:59;;;;;;;46.30;28.03;;;;;;;;;;5092148;28;20234;-61
2022/12/26 16:51:37;;;;;;;73.67;40.87;;;;;;;;;;5091180;28;20286;-64
2022/12/26 16:54:20;;;;;;;43.77;24.70;;;;;;;;;;5092671;28;20218;-61
2022/12/26 16:56:56;;;;;;;46.60;26.67;;;;;;;;;;5092694;28;20235;-60
2022/12/26 16:59:25;;;;;;;51.53;28.43;;;;;;;;;;5092000;28;20222;-60
2022/12/26 17:01:57;;;;;;;45.40;25.13;;;;;;;;;;5091850;28;20226;-62
2022/12/26 17:04:26;;;;;;;47.27;26.17;;;;;;;;;;5092474;28;20249;-63
2022/12/26 17:07:00;;;;;;;42.10;24.80;;;;;;;;;;5092425;28;20309;-60
2022/12/26 17:09:31;;;;;;;46.83;26.00;;;;;;;;;;5092358;28;20233;-60
2022/12/26 17:12:00;;;;;;;40.50;24.07;;;;;;;;;;5092343;28;20686;-59